createdAt,value
2023-05-09T00:00:43.429Z,101014.59
2023-05-09T00:05:36.157Z,100984.38
2023-05-09T00:10:29.263Z,101011.94
2023-05-09T00:15:22.359Z,101028.81
2023-05-09T00:20:17.079Z,101020.91
2023-05-09T00:25:12.872Z,101010.56
2023-05-09T00:30:08.621Z,100996.84
2023-05-09T00:35:01.768Z,101020.91
2023-05-09T00:39:54.330Z,101012.19
2023-05-09T00:44:47.696Z,101010.47
2023-05-09T00:49:40.560Z,101020.19
2023-05-09T00:54:33.824Z,101005.84
2023-05-09T00:59:28.193Z,100984.50
2023-05-09T01:04:22.408Z,100984.50
2023-05-09T01:09:33.636Z,101004.06
2023-05-09T01:15:09.342Z,100966.03
2023-05-09T01:20:24.039Z,100967.75
2023-05-09T01:25:31.504Z,100959.84
2023-05-09T01:30:45.894Z,100968.47
2023-05-09T01:35:58.082Z,100985.50
2023-05-09T01:41:12.049Z,100950.78
2023-05-09T01:46:25.889Z,100985.59
2023-05-09T01:51:20.715Z,100962.72
2023-05-09T01:56:14.654Z,100999.06
2023-05-09T02:01:07.838Z,100948.25
2023-05-09T02:06:04.324Z,100983.19
2023-05-09T02:10:57.460Z,100984.84
2023-05-09T02:15:51.093Z,100974.22
2023-05-09T02:20:45.068Z,100968.88
2023-05-09T02:25:40.107Z,100974.03
2023-05-09T02:30:37.782Z,100991.28
2023-05-09T02:35:30.570Z,100963.56
2023-05-09T02:40:25.033Z,100984.03
2023-05-09T02:45:18.063Z,100982.78
2023-05-09T02:50:11.132Z,100970.28
2023-05-09T02:55:04.901Z,100984.84
2023-05-09T03:00:02.422Z,100951.31
2023-05-09T03:04:56.062Z,100992.03
2023-05-09T03:09:49.731Z,100977.94
2023-05-09T03:14:42.149Z,100955.78
2023-05-09T03:19:35.382Z,100953.97
2023-05-09T03:24:31.161Z,100962.06
2023-05-09T03:29:24.592Z,100956.59
2023-05-09T03:34:18.331Z,100957.56
2023-05-09T03:39:11.848Z,100962.16
2023-05-09T03:44:10.675Z,100970.06
2023-05-09T03:49:05.898Z,100972.72
2023-05-09T03:54:00.740Z,100988.84
2023-05-09T03:58:54.828Z,100937.28
2023-05-09T04:03:48.844Z,100969.34
2023-05-09T04:08:42.214Z,100979.50
2023-05-09T04:13:35.283Z,100987.38
2023-05-09T04:18:33.520Z,100992.59
2023-05-09T04:23:26.157Z,100991.75
2023-05-09T04:28:22.262Z,100993.44
2023-05-09T04:33:15.545Z,100949.03
2023-05-09T04:38:09.025Z,100947.22
2023-05-09T04:43:02.309Z,100974.03
2023-05-09T04:47:56.669Z,100946.53
2023-05-09T04:52:49.710Z,100939.34
2023-05-09T04:57:42.914Z,100969.44
2023-05-09T05:02:35.982Z,100994.50
2023-05-09T05:07:29.501Z,100980.13
2023-05-09T05:12:22.564Z,101001.84
2023-05-09T05:17:17.747Z,101013.31
2023-05-09T05:22:12.319Z,101028.66
2023-05-09T05:27:07.779Z,101039.44
2023-05-09T05:32:01.407Z,101020.66
2023-05-09T05:36:54.101Z,100993.47
2023-05-09T05:41:48.065Z,101017.75
2023-05-09T05:46:42.836Z,101009.78
2023-05-09T05:51:47.188Z,100985.28
2023-05-09T05:56:40.438Z,101010.31
2023-05-09T06:01:34.394Z,101007.44
2023-05-09T06:06:29.726Z,100974.09
2023-05-09T06:11:23.763Z,101007.22
2023-05-09T06:16:19.845Z,100973.00
2023-05-09T06:21:15.526Z,100997.19
2023-05-09T06:26:09.087Z,101003.16
2023-05-09T06:31:02.185Z,100990.19
2023-05-09T06:35:55.641Z,101003.41
2023-05-09T06:40:49.560Z,100973.03
2023-05-09T06:45:44.541Z,101004.66
2023-05-09T06:50:41.407Z,100981.41
2023-05-09T06:55:34.725Z,100994.53
2023-05-09T07:00:28.288Z,100987.50
2023-05-09T07:05:21.932Z,100982.78
2023-05-09T07:10:15.878Z,100951.81
2023-05-09T07:15:12.068Z,100960.63
2023-05-09T07:20:07.613Z,100954.56
2023-05-09T07:25:01.518Z,100971.81
2023-05-09T07:29:55.076Z,100950.41
2023-05-09T07:34:48.661Z,100973.63
2023-05-09T07:39:42.250Z,100962.56
2023-05-09T07:44:35.709Z,100968.38
2023-05-09T07:49:29.138Z,100944.31
2023-05-09T07:54:22.618Z,100969.25
2023-05-09T07:59:15.651Z,100979.28
2023-05-09T08:04:09.584Z,100933.38
2023-05-09T08:09:03.033Z,100938.38
2023-05-09T08:13:55.695Z,100921.25
2023-05-09T08:18:48.377Z,100951.47
2023-05-09T08:23:41.279Z,100956.94
2023-05-09T08:28:34.547Z,100966.06
2023-05-09T08:33:27.124Z,100921.47
2023-05-09T08:38:21.711Z,100940.94
2023-05-09T08:43:18.422Z,100962.34
2023-05-09T08:48:13.289Z,100951.44
2023-05-09T08:53:06.524Z,100920.34
2023-05-09T08:58:00.179Z,100935.09
2023-05-09T09:02:54.481Z,100939.59
2023-05-09T09:07:47.969Z,100895.84
2023-05-09T09:12:41.847Z,100927.75
2023-05-09T09:17:41.847Z,100908.69
2023-05-09T09:22:39.748Z,100914.88
2023-05-09T09:27:33.015Z,100925.81
2023-05-09T09:32:34.555Z,100894.97
2023-05-09T09:37:28.236Z,100928.47
2023-05-09T09:42:22.442Z,100915.28
2023-05-09T09:47:15.595Z,100868.03
2023-05-09T09:52:09.147Z,100915.28
2023-05-09T09:57:02.386Z,100908.13
2023-05-09T10:01:59.142Z,100902.91
2023-05-09T10:07:14.644Z,100896.75
2023-05-09T10:12:09.165Z,100891.41
2023-05-09T10:17:03.812Z,100880.69
2023-05-09T10:21:59.884Z,100872.91
2023-05-09T10:26:57.367Z,100887.13
2023-05-09T10:31:55.042Z,100871.59
2023-05-09T10:36:49.472Z,100860.53
2023-05-09T10:41:43.335Z,100892.25
2023-05-09T10:46:37.318Z,100822.22
2023-05-09T10:51:31.396Z,100851.50
2023-05-09T10:56:34.388Z,100865.72
2023-05-09T11:01:39.741Z,100842.78
2023-05-09T11:06:55.712Z,100835.53
2023-05-09T11:11:53.005Z,100832.97
2023-05-09T11:17:25.267Z,100810.66
2023-05-09T11:22:33.085Z,100809.09
2023-05-09T11:27:28.918Z,100795.75
2023-05-09T11:32:23.020Z,100812.50
2023-05-09T11:37:23.895Z,100794.66
2023-05-09T11:42:18.865Z,100771.97
2023-05-09T11:47:12.402Z,100769.94
2023-05-09T11:52:13.568Z,100761.81
2023-05-09T11:57:08.108Z,100751.50
2023-05-09T12:02:04.863Z,100771.16
2023-05-09T12:06:59.398Z,100781.13
2023-05-09T12:11:52.737Z,100774.75
2023-05-09T12:16:49.283Z,100736.28
2023-05-09T12:21:42.894Z,100712.06
2023-05-09T12:26:36.398Z,100732.13
2023-05-09T12:31:29.779Z,100721.81
2023-05-09T12:36:25.034Z,100720.59
2023-05-09T12:41:34.928Z,100699.22
2023-05-09T12:46:31.615Z,100698.53
2023-05-09T12:51:24.556Z,100701.91
2023-05-09T12:56:19.490Z,100688.59
2023-05-09T13:01:14.701Z,100681.56
2023-05-09T13:06:13.972Z,100667.50
2023-05-09T13:11:16.127Z,100661.94
2023-05-09T13:16:12.016Z,100647.88
2023-05-09T13:21:06.070Z,100646.44
2023-05-09T13:25:59.564Z,100641.56
2023-05-09T13:30:52.671Z,100645.94
2023-05-09T13:35:48.487Z,100606.06
2023-05-09T13:40:42.232Z,100621.94
2023-05-09T13:45:34.842Z,100591.63
2023-05-09T13:50:27.958Z,100568.88
2023-05-09T13:55:22.309Z,100600.00
2023-05-09T14:00:18.365Z,100591.88
2023-05-09T14:05:12.101Z,100584.25
2023-05-09T14:10:11.366Z,100578.44
2023-05-09T14:15:07.822Z,100583.78
2023-05-09T14:19:59.957Z,100569.22
2023-05-09T14:24:54.525Z,100584.97
2023-05-09T14:29:49.389Z,100558.81
2023-05-09T14:34:42.853Z,100598.91
2023-05-09T14:39:36.990Z,100583.66
2023-05-09T14:44:30.133Z,100580.16
2023-05-09T14:49:23.588Z,100577.84
2023-05-09T14:54:16.224Z,100550.09
2023-05-09T14:59:09.598Z,100524.28
2023-05-09T15:04:03.198Z,100524.03
2023-05-09T15:08:56.375Z,100555.06
2023-05-09T15:13:49.677Z,100556.25
2023-05-09T15:18:45.933Z,100556.53
2023-05-09T15:23:42.333Z,100558.31
2023-05-09T15:28:36.296Z,100541.00
2023-05-09T15:33:29.642Z,100528.16
2023-05-09T15:38:23.449Z,100536.03
2023-05-09T15:43:16.936Z,100536.75
2023-05-09T15:48:11.585Z,100510.25
2023-05-09T15:53:04.964Z,100503.69
2023-05-09T15:57:58.882Z,100518.94
2023-05-09T16:02:52.187Z,100522.34
2023-05-09T16:07:51.001Z,100499.59
2023-05-09T16:12:44.813Z,100519.06
2023-05-09T16:17:38.433Z,100521.13
2023-05-09T16:22:31.959Z,100519.78
2023-05-09T16:27:25.009Z,100523.28
2023-05-09T16:32:18.497Z,100490.72
2023-05-09T16:37:11.530Z,100530.47
2023-05-09T16:42:04.465Z,100517.22
2023-05-09T16:46:57.885Z,100510.19
2023-05-09T16:51:51.760Z,100511.19
2023-05-09T16:56:44.951Z,100492.78
2023-05-09T17:01:38.286Z,100511.31
2023-05-09T17:06:31.753Z,100491.81
2023-05-09T17:11:25.207Z,100502.94
2023-05-09T17:16:18.368Z,100483.94
2023-05-09T17:21:10.885Z,100493.25
2023-05-09T17:26:04.365Z,100496.53
2023-05-09T17:31:02.389Z,100478.59
2023-05-09T17:35:56.120Z,100477.16
2023-05-09T17:40:53.474Z,100502.84
2023-05-09T17:45:46.896Z,100466.66
2023-05-09T17:50:40.757Z,100467.72
2023-05-09T17:55:33.326Z,100503.31
2023-05-09T18:00:27.432Z,100502.72
2023-05-09T18:05:21.148Z,100500.53
2023-05-09T18:10:15.240Z,100491.31
2023-05-09T18:15:11.150Z,100516.53
2023-05-09T18:20:06.594Z,100487.97
2023-05-09T18:24:59.708Z,100513.38
2023-05-09T18:29:53.171Z,100515.91
2023-05-09T18:34:45.733Z,100511.69
2023-05-09T18:39:42.220Z,100472.94
2023-05-09T18:44:36.996Z,100506.13
2023-05-09T18:49:30.489Z,100503.94
2023-05-09T18:54:25.296Z,100502.63
2023-05-09T18:59:18.360Z,100519.06
2023-05-09T19:04:11.519Z,100503.22
2023-05-09T19:09:04.901Z,100507.22
2023-05-09T19:13:58.067Z,100510.84
2023-05-09T19:18:51.867Z,100494.94
2023-05-09T19:23:48.216Z,100484.28
2023-05-09T19:28:40.843Z,100515.69
2023-05-09T19:33:34.687Z,100516.78
2023-05-09T19:38:28.377Z,100470.84
2023-05-09T19:43:22.585Z,100485.03
2023-05-09T19:48:16.383Z,100524.03
2023-05-09T19:53:09.801Z,100500.78
2023-05-09T19:58:03.449Z,100515.31
2023-05-09T20:03:00.197Z,100504.41
2023-05-09T20:07:53.584Z,100520.53
2023-05-09T20:12:51.572Z,100512.41
2023-05-09T20:17:45.226Z,100511.94
2023-05-09T20:22:38.932Z,100489.28
2023-05-09T20:27:32.821Z,100523.44
2023-05-09T20:32:26.190Z,100519.81
2023-05-09T20:37:19.153Z,100493.13
2023-05-09T20:42:12.467Z,100485.50
2023-05-09T20:47:06.477Z,100486.94
2023-05-09T20:52:00.449Z,100461.75
2023-05-09T20:56:53.791Z,100477.50
2023-05-09T21:01:47.012Z,100469.38
2023-05-09T21:06:40.862Z,100442.84
2023-05-09T21:11:35.736Z,100459.53
2023-05-09T21:16:29.726Z,100458.84
2023-05-09T21:21:23.561Z,100460.63
2023-05-09T21:26:17.117Z,100420.22
2023-05-09T21:31:11.637Z,100460.88
2023-05-09T21:36:03.934Z,100445.75
2023-05-09T21:41:01.427Z,100434.50
2023-05-09T21:45:56.073Z,100444.88
2023-05-09T21:50:48.632Z,100429.03
2023-05-09T21:55:42.022Z,100387.38
2023-05-09T22:00:35.444Z,100399.47
2023-05-09T22:05:28.608Z,100393.81
2023-05-09T22:10:21.697Z,100366.94
2023-05-09T22:15:14.366Z,100406.84
2023-05-09T22:20:07.596Z,100380.47
2023-05-09T22:25:00.833Z,100412.19
2023-05-09T22:29:53.796Z,100393.53
2023-05-09T22:34:48.528Z,100388.19
2023-05-09T22:39:42.048Z,100397.16
2023-05-09T22:44:35.746Z,100387.34
2023-05-09T22:49:28.782Z,100369.81
2023-05-09T22:54:24.025Z,100386.50
2023-05-09T22:59:16.554Z,100365.59
2023-05-09T23:04:11.011Z,100396.31
2023-05-09T23:09:05.057Z,100379.72
2023-05-09T23:13:58.763Z,100390.97
2023-05-09T23:18:52.674Z,100357.22
2023-05-09T23:23:45.702Z,100365.56
2023-05-09T23:28:37.863Z,100367.13
2023-05-09T23:33:31.515Z,100345.81
2023-05-09T23:38:24.038Z,100343.28
2023-05-09T23:43:18.582Z,100328.28
2023-05-09T23:48:12.470Z,100338.03
2023-05-09T23:53:07.525Z,100352.09
2023-05-09T23:58:02.892Z,100337.78
